sensor_id;sensor_type;location;lat;lon;timestamp;P1;durP1;ratioP1;P2;durP2;ratioP2
16242;SDS011;11719;51.052;6.982;2023-05-14T00:02:21;9.67;;;5.70;;
16242;SDS011;11719;51.052;6.982;2023-05-14T00:04:47;15.20;;;8.37;;
16242;SDS011;11719;51.052;6.982;2023-05-14T00:07:13;4.17;;;2.67;;
16242;SDS011;11719;51.052;6.982;2023-05-14T00:09:38;5.90;;;3.90;;
16242;SDS011;11719;51.052;6.982;2023-05-14T00:12:04;6.60;;;4.37;;
16242;SDS011;11719;51.052;6.982;2023-05-14T00:14:30;10.13;;;4.33;;
16242;SDS011;11719;51.052;6.982;2023-05-14T00:16:56;6.57;;;4.90;;
16242;SDS011;11719;51.052;6.982;2023-05-14T00:19:23;2.87;;;2.43;;
16242;SDS011;11719;51.052;6.982;2023-05-14T00:21:49;6.87;;;4.27;;
16242;SDS011;11719;51.052;6.982;2023-05-14T00:24:15;5.00;;;2.63;;
16242;SDS011;11719;51.052;6.982;2023-05-14T00:26:41;4.70;;;2.27;;
16242;SDS011;11719;51.052;6.982;2023-05-14T00:29:07;3.97;;;2.70;;
16242;SDS011;11719;51.052;6.982;2023-05-14T00:31:33;4.07;;;2.53;;
16242;SDS011;11719;51.052;6.982;2023-05-14T00:33:59;2.57;;;2.27;;
16242;SDS011;11719;51.052;6.982;2023-05-14T00:36:25;6.77;;;2.70;;
16242;SDS011;11719;51.052;6.982;2023-05-14T00:38:51;2.33;;;2.00;;
16242;SDS011;11719;51.052;6.982;2023-05-14T00:41:16;3.57;;;2.20;;
16242;SDS011;11719;51.052;6.982;2023-05-14T00:43:42;2.67;;;2.43;;
16242;SDS011;11719;51.052;6.982;2023-05-14T00:46:08;3.60;;;2.73;;
16242;SDS011;11719;51.052;6.982;2023-05-14T00:48:36;5.70;;;3.50;;
16242;SDS011;11719;51.052;6.982;2023-05-14T00:51:02;2.57;;;2.20;;
16242;SDS011;11719;51.052;6.982;2023-05-14T00:53:28;2.40;;;1.97;;
16242;SDS011;11719;51.052;6.982;2023-05-14T00:55:53;3.17;;;2.13;;
16242;SDS011;11719;51.052;6.982;2023-05-14T00:58:19;4.17;;;2.30;;
16242;SDS011;11719;51.052;6.982;2023-05-14T01:00:46;2.40;;;2.20;;
16242;SDS011;11719;51.052;6.982;2023-05-14T01:03:12;3.37;;;3.07;;
16242;SDS011;11719;51.052;6.982;2023-05-14T01:05:40;4.77;;;3.30;;
16242;SDS011;11719;51.052;6.982;2023-05-14T01:09:16;5.57;;;3.77;;
16242;SDS011;11719;51.052;6.982;2023-05-14T01:15:09;5.23;;;2.37;;
16242;SDS011;11719;51.052;6.982;2023-05-14T01:17:42;3.67;;;3.10;;
16242;SDS011;11719;51.052;6.982;2023-05-14T01:20:18;5.10;;;2.83;;
16242;SDS011;11719;51.052;6.982;2023-05-14T01:22:44;3.87;;;2.10;;
16242;SDS011;11719;51.052;6.982;2023-05-14T01:25:10;2.10;;;1.90;;
16242;SDS011;11719;51.052;6.982;2023-05-14T01:30:18;5.60;;;3.20;;
16242;SDS011;11719;51.052;6.982;2023-05-14T01:33:02;4.83;;;2.70;;
16242;SDS011;11719;51.052;6.982;2023-05-14T01:35:32;2.40;;;2.20;;
16242;SDS011;11719;51.052;6.982;2023-05-14T01:37:59;3.20;;;2.80;;
16242;SDS011;11719;51.052;6.982;2023-05-14T01:40:28;3.40;;;2.40;;
16242;SDS011;11719;51.052;6.982;2023-05-14T01:42:57;2.67;;;2.20;;
16242;SDS011;11719;51.052;6.982;2023-05-14T01:45:24;4.03;;;2.40;;
16242;SDS011;11719;51.052;6.982;2023-05-14T01:47:51;4.40;;;3.23;;
16242;SDS011;11719;51.052;6.982;2023-05-14T01:50:17;3.17;;;2.60;;
16242;SDS011;11719;51.052;6.982;2023-05-14T01:52:43;2.70;;;2.50;;
16242;SDS011;11719;51.052;6.982;2023-05-14T01:55:09;3.63;;;2.50;;
16242;SDS011;11719;51.052;6.982;2023-05-14T01:57:35;3.53;;;2.23;;
16242;SDS011;11719;51.052;6.982;2023-05-14T02:00:00;3.80;;;2.40;;
16242;SDS011;11719;51.052;6.982;2023-05-14T02:02:28;2.97;;;2.13;;
16242;SDS011;11719;51.052;6.982;2023-05-14T02:04:53;3.43;;;2.20;;
16242;SDS011;11719;51.052;6.982;2023-05-14T02:07:19;3.43;;;2.33;;
16242;SDS011;11719;51.052;6.982;2023-05-14T02:09:45;2.73;;;2.03;;
16242;SDS011;11719;51.052;6.982;2023-05-14T02:12:11;3.30;;;2.43;;
16242;SDS011;11719;51.052;6.982;2023-05-14T02:14:37;2.47;;;2.07;;
16242;SDS011;11719;51.052;6.982;2023-05-14T02:17:02;2.20;;;2.00;;
16242;SDS011;11719;51.052;6.982;2023-05-14T02:19:29;2.27;;;1.97;;
16242;SDS011;11719;51.052;6.982;2023-05-14T02:21:55;2.63;;;2.23;;
16242;SDS011;11719;51.052;6.982;2023-05-14T02:24:20;2.80;;;2.17;;
16242;SDS011;11719;51.052;6.982;2023-05-14T02:26:46;3.80;;;2.43;;
16242;SDS011;11719;51.052;6.982;2023-05-14T02:29:12;3.07;;;2.33;;
16242;SDS011;11719;51.052;6.982;2023-05-14T02:31:38;2.37;;;1.93;;
16242;SDS011;11719;51.052;6.982;2023-05-14T02:34:04;3.17;;;2.47;;
16242;SDS011;11719;51.052;6.982;2023-05-14T02:36:30;2.57;;;1.97;;
16242;SDS011;11719;51.052;6.982;2023-05-14T02:38:57;4.27;;;2.20;;
16242;SDS011;11719;51.052;6.982;2023-05-14T02:41:24;2.07;;;1.90;;
16242;SDS011;11719;51.052;6.982;2023-05-14T02:43:50;3.23;;;2.57;;
16242;SDS011;11719;51.052;6.982;2023-05-14T02:46:17;3.57;;;2.07;;
16242;SDS011;11719;51.052;6.982;2023-05-14T02:48:42;2.27;;;2.07;;
16242;SDS011;11719;51.052;6.982;2023-05-14T02:51:08;2.50;;;1.87;;
16242;SDS011;11719;51.052;6.982;2023-05-14T02:53:34;3.70;;;2.47;;
16242;SDS011;11719;51.052;6.982;2023-05-14T02:56:00;2.63;;;2.03;;
16242;SDS011;11719;51.052;6.982;2023-05-14T02:58:26;3.63;;;2.23;;
16242;SDS011;11719;51.052;6.982;2023-05-14T03:00:52;2.80;;;2.03;;
16242;SDS011;11719;51.052;6.982;2023-05-14T03:03:18;3.90;;;2.60;;
16242;SDS011;11719;51.052;6.982;2023-05-14T03:05:43;2.30;;;2.10;;
16242;SDS011;11719;51.052;6.982;2023-05-14T03:08:09;2.83;;;2.10;;
16242;SDS011;11719;51.052;6.982;2023-05-14T03:10:35;2.97;;;2.50;;
16242;SDS011;11719;51.052;6.982;2023-05-14T03:13:01;6.80;;;2.27;;
16242;SDS011;11719;51.052;6.982;2023-05-14T03:15:27;2.50;;;1.87;;
16242;SDS011;11719;51.052;6.982;2023-05-14T03:17:53;3.10;;;2.20;;
16242;SDS011;11719;51.052;6.982;2023-05-14T03:20:19;2.17;;;1.77;;
16242;SDS011;11719;51.052;6.982;2023-05-14T03:22:45;3.03;;;2.00;;
16242;SDS011;11719;51.052;6.982;2023-05-14T03:25:11;2.30;;;2.10;;
16242;SDS011;11719;51.052;6.982;2023-05-14T03:27:37;3.37;;;1.97;;
16242;SDS011;11719;51.052;6.982;2023-05-14T03:30:02;4.10;;;2.77;;
16242;SDS011;11719;51.052;6.982;2023-05-14T03:32:29;2.60;;;2.10;;
16242;SDS011;11719;51.052;6.982;2023-05-14T03:34:55;2.70;;;2.00;;
16242;SDS011;11719;51.052;6.982;2023-05-14T03:37:21;2.37;;;1.97;;
16242;SDS011;11719;51.052;6.982;2023-05-14T03:39:48;2.47;;;2.00;;
16242;SDS011;11719;51.052;6.982;2023-05-14T03:42:14;2.77;;;1.80;;
16242;SDS011;11719;51.052;6.982;2023-05-14T03:44:40;1.97;;;1.60;;
16242;SDS011;11719;51.052;6.982;2023-05-14T03:47:06;2.13;;;1.93;;
16242;SDS011;11719;51.052;6.982;2023-05-14T03:49:31;2.40;;;1.90;;
16242;SDS011;11719;51.052;6.982;2023-05-14T03:51:57;2.67;;;2.07;;
16242;SDS011;11719;51.052;6.982;2023-05-14T03:54:23;3.27;;;2.60;;
16242;SDS011;11719;51.052;6.982;2023-05-14T03:56:50;3.33;;;2.23;;
16242;SDS011;11719;51.052;6.982;2023-05-14T03:59:16;3.37;;;2.60;;
16242;SDS011;11719;51.052;6.982;2023-05-14T04:01:42;2.57;;;1.87;;
16242;SDS011;11719;51.052;6.982;2023-05-14T04:04:08;3.10;;;1.90;;
16242;SDS011;11719;51.052;6.982;2023-05-14T04:06:34;2.67;;;1.97;;
16242;SDS011;11719;51.052;6.982;2023-05-14T04:09:00;2.37;;;1.90;;
16242;SDS011;11719;51.052;6.982;2023-05-14T04:11:27;2.07;;;1.80;;
16242;SDS011;11719;51.052;6.982;2023-05-14T04:13:53;2.37;;;1.60;;
16242;SDS011;11719;51.052;6.982;2023-05-14T04:16:19;3.17;;;2.10;;
16242;SDS011;11719;51.052;6.982;2023-05-14T04:18:45;2.57;;;2.20;;
16242;SDS011;11719;51.052;6.982;2023-05-14T04:21:11;2.23;;;1.83;;
16242;SDS011;11719;51.052;6.982;2023-05-14T04:23:37;2.33;;;1.93;;
16242;SDS011;11719;51.052;6.982;2023-05-14T04:26:02;2.30;;;2.10;;
16242;SDS011;11719;51.052;6.982;2023-05-14T04:28:29;2.70;;;2.03;;
16242;SDS011;11719;51.052;6.982;2023-05-14T04:30:55;5.43;;;3.00;;
16242;SDS011;11719;51.052;6.982;2023-05-14T04:33:21;4.40;;;2.27;;
16242;SDS011;11719;51.052;6.982;2023-05-14T04:35:46;2.10;;;1.73;;
16242;SDS011;11719;51.052;6.982;2023-05-14T04:38:12;2.17;;;1.97;;
16242;SDS011;11719;51.052;6.982;2023-05-14T04:40:38;2.73;;;1.80;;
16242;SDS011;11719;51.052;6.982;2023-05-14T04:43:05;2.53;;;1.87;;
16242;SDS011;11719;51.052;6.982;2023-05-14T04:45:32;2.23;;;1.97;;
16242;SDS011;11719;51.052;6.982;2023-05-14T04:47:58;1.80;;;1.70;;
16242;SDS011;11719;51.052;6.982;2023-05-14T04:50:23;2.87;;;2.37;;
16242;SDS011;11719;51.052;6.982;2023-05-14T04:52:49;2.20;;;1.90;;
16242;SDS011;11719;51.052;6.982;2023-05-14T04:55:15;2.17;;;1.97;;
16242;SDS011;11719;51.052;6.982;2023-05-14T04:57:41;2.77;;;1.73;;
16242;SDS011;11719;51.052;6.982;2023-05-14T05:00:07;2.57;;;2.20;;
16242;SDS011;11719;51.052;6.982;2023-05-14T05:02:34;2.27;;;2.07;;
16242;SDS011;11719;51.052;6.982;2023-05-14T05:05:00;2.37;;;1.60;;
16242;SDS011;11719;51.052;6.982;2023-05-14T05:07:28;2.63;;;2.10;;
16242;SDS011;11719;51.052;6.982;2023-05-14T05:09:53;2.40;;;1.80;;
16242;SDS011;11719;51.052;6.982;2023-05-14T05:12:19;2.10;;;1.90;;
16242;SDS011;11719;51.052;6.982;2023-05-14T05:14:45;2.57;;;2.13;;
16242;SDS011;11719;51.052;6.982;2023-05-14T05:17:11;2.43;;;2.07;;
16242;SDS011;11719;51.052;6.982;2023-05-14T05:19:37;2.30;;;1.80;;
16242;SDS011;11719;51.052;6.982;2023-05-14T05:22:03;2.97;;;1.90;;
16242;SDS011;11719;51.052;6.982;2023-05-14T05:24:29;2.40;;;1.80;;
16242;SDS011;11719;51.052;6.982;2023-05-14T05:26:54;2.00;;;1.90;;
16242;SDS011;11719;51.052;6.982;2023-05-14T05:29:21;2.40;;;1.57;;
16242;SDS011;11719;51.052;6.982;2023-05-14T05:31:47;4.00;;;2.27;;
16242;SDS011;11719;51.052;6.982;2023-05-14T05:34:13;1.87;;;1.50;;
16242;SDS011;11719;51.052;6.982;2023-05-14T05:36:39;2.33;;;1.87;;
16242;SDS011;11719;51.052;6.982;2023-05-14T05:39:05;2.03;;;1.90;;
16242;SDS011;11719;51.052;6.982;2023-05-14T05:41:31;1.77;;;1.60;;
16242;SDS011;11719;51.052;6.982;2023-05-14T05:43:57;1.97;;;1.77;;
16242;SDS011;11719;51.052;6.982;2023-05-14T05:46:22;3.07;;;1.97;;
16242;SDS011;11719;51.052;6.982;2023-05-14T05:48:48;2.07;;;1.60;;
16242;SDS011;11719;51.052;6.982;2023-05-14T05:51:14;2.17;;;1.77;;
16242;SDS011;11719;51.052;6.982;2023-05-14T05:53:40;2.77;;;2.20;;
16242;SDS011;11719;51.052;6.982;2023-05-14T05:56:06;2.10;;;1.77;;
16242;SDS011;11719;51.052;6.982;2023-05-14T05:58:31;2.77;;;1.87;;
16242;SDS011;11719;51.052;6.982;2023-05-14T06:00:57;4.07;;;3.13;;
16242;SDS011;11719;51.052;6.982;2023-05-14T06:03:23;2.10;;;1.90;;
16242;SDS011;11719;51.052;6.982;2023-05-14T06:05:49;1.73;;;1.63;;
16242;SDS011;11719;51.052;6.982;2023-05-14T06:08:16;2.70;;;1.73;;
16242;SDS011;11719;51.052;6.982;2023-05-14T06:10:42;3.67;;;2.77;;
16242;SDS011;11719;51.052;6.982;2023-05-14T06:13:10;4.00;;;3.10;;
16242;SDS011;11719;51.052;6.982;2023-05-14T06:15:35;5.70;;;3.97;;
16242;SDS011;11719;51.052;6.982;2023-05-14T06:18:01;2.03;;;1.83;;
16242;SDS011;11719;51.052;6.982;2023-05-14T06:20:27;4.33;;;3.50;;
16242;SDS011;11719;51.052;6.982;2023-05-14T06:22:53;4.27;;;3.40;;
16242;SDS011;11719;51.052;6.982;2023-05-14T06:25:18;4.43;;;3.57;;
16242;SDS011;11719;51.052;6.982;2023-05-14T06:27:44;4.00;;;3.40;;
16242;SDS011;11719;51.052;6.982;2023-05-14T06:30:10;5.00;;;3.53;;
16242;SDS011;11719;51.052;6.982;2023-05-14T06:32:37;3.57;;;3.03;;
16242;SDS011;11719;51.052;6.982;2023-05-14T06:35:03;6.60;;;3.87;;
16242;SDS011;11719;51.052;6.982;2023-05-14T06:37:29;5.43;;;3.90;;
16242;SDS011;11719;51.052;6.982;2023-05-14T06:39:55;4.33;;;3.90;;
16242;SDS011;11719;51.052;6.982;2023-05-14T06:42:21;2.23;;;1.67;;
16242;SDS011;11719;51.052;6.982;2023-05-14T06:44:47;2.70;;;2.30;;
16242;SDS011;11719;51.052;6.982;2023-05-14T06:47:13;3.73;;;3.30;;
16242;SDS011;11719;51.052;6.982;2023-05-14T06:49:38;3.50;;;2.37;;
16242;SDS011;11719;51.052;6.982;2023-05-14T06:52:04;7.53;;;5.40;;
16242;SDS011;11719;51.052;6.982;2023-05-14T06:54:30;7.93;;;5.37;;
16242;SDS011;11719;51.052;6.982;2023-05-14T06:56:56;9.47;;;5.70;;
16242;SDS011;11719;51.052;6.982;2023-05-14T06:59:22;4.07;;;3.07;;
16242;SDS011;11719;51.052;6.982;2023-05-14T07:01:48;3.10;;;2.17;;
16242;SDS011;11719;51.052;6.982;2023-05-14T07:04:14;8.27;;;5.27;;
16242;SDS011;11719;51.052;6.982;2023-05-14T07:06:40;5.90;;;4.00;;
16242;SDS011;11719;51.052;6.982;2023-05-14T07:09:05;9.50;;;4.07;;
16242;SDS011;11719;51.052;6.982;2023-05-14T07:11:31;6.43;;;3.80;;
16242;SDS011;11719;51.052;6.982;2023-05-14T07:13:58;5.93;;;4.40;;
16242;SDS011;11719;51.052;6.982;2023-05-14T07:16:24;2.60;;;2.10;;
16242;SDS011;11719;51.052;6.982;2023-05-14T07:18:50;4.60;;;2.17;;
16242;SDS011;11719;51.052;6.982;2023-05-14T07:21:16;5.20;;;4.00;;
16242;SDS011;11719;51.052;6.982;2023-05-14T07:23:42;3.93;;;3.07;;
16242;SDS011;11719;51.052;6.982;2023-05-14T07:26:08;7.70;;;4.23;;
16242;SDS011;11719;51.052;6.982;2023-05-14T07:28:34;5.33;;;4.27;;
16242;SDS011;11719;51.052;6.982;2023-05-14T07:30:59;5.07;;;3.73;;
16242;SDS011;11719;51.052;6.982;2023-05-14T07:33:25;5.10;;;4.10;;
16242;SDS011;11719;51.052;6.982;2023-05-14T07:35:51;5.93;;;4.30;;
16242;SDS011;11719;51.052;6.982;2023-05-14T07:38:18;7.00;;;5.40;;
16242;SDS011;11719;51.052;6.982;2023-05-14T07:40:44;6.60;;;4.83;;
16242;SDS011;11719;51.052;6.982;2023-05-14T07:43:10;6.73;;;4.57;;
16242;SDS011;11719;51.052;6.982;2023-05-14T07:45:36;7.20;;;5.07;;
16242;SDS011;11719;51.052;6.982;2023-05-14T07:48:05;8.63;;;4.80;;
16242;SDS011;11719;51.052;6.982;2023-05-14T07:50:31;7.00;;;5.20;;
16242;SDS011;11719;51.052;6.982;2023-05-14T07:52:57;8.13;;;5.67;;
16242;SDS011;11719;51.052;6.982;2023-05-14T07:55:22;10.93;;;6.30;;
16242;SDS011;11719;51.052;6.982;2023-05-14T07:57:48;8.87;;;6.37;;
16242;SDS011;11719;51.052;6.982;2023-05-14T08:00:14;10.97;;;6.97;;
16242;SDS011;11719;51.052;6.982;2023-05-14T08:02:41;10.87;;;6.80;;
16242;SDS011;11719;51.052;6.982;2023-05-14T08:05:07;10.17;;;6.43;;
16242;SDS011;11719;51.052;6.982;2023-05-14T08:07:34;7.40;;;5.57;;
16242;SDS011;11719;51.052;6.982;2023-05-14T08:10:00;9.97;;;5.50;;
16242;SDS011;11719;51.052;6.982;2023-05-14T08:12:26;8.70;;;5.70;;
16242;SDS011;11719;51.052;6.982;2023-05-14T08:14:53;7.97;;;4.87;;
16242;SDS011;11719;51.052;6.982;2023-05-14T08:17:20;10.73;;;5.87;;
16242;SDS011;11719;51.052;6.982;2023-05-14T08:19:46;5.53;;;4.30;;
16242;SDS011;11719;51.052;6.982;2023-05-14T08:22:12;7.10;;;5.13;;
16242;SDS011;11719;51.052;6.982;2023-05-14T08:24:37;7.63;;;6.10;;
16242;SDS011;11719;51.052;6.982;2023-05-14T08:27:03;8.20;;;5.17;;
16242;SDS011;11719;51.052;6.982;2023-05-14T08:29:30;8.83;;;4.63;;
16242;SDS011;11719;51.052;6.982;2023-05-14T08:31:56;2.67;;;2.27;;
16242;SDS011;11719;51.052;6.982;2023-05-14T08:34:22;6.57;;;4.80;;
16242;SDS011;11719;51.052;6.982;2023-05-14T08:36:47;6.10;;;4.67;;
16242;SDS011;11719;51.052;6.982;2023-05-14T08:39:13;7.43;;;4.83;;
16242;SDS011;11719;51.052;6.982;2023-05-14T08:41:39;5.47;;;3.63;;
16242;SDS011;11719;51.052;6.982;2023-05-14T08:44:12;6.40;;;5.07;;
16242;SDS011;11719;51.052;6.982;2023-05-14T08:46:42;7.97;;;5.47;;
16242;SDS011;11719;51.052;6.982;2023-05-14T08:52:02;6.83;;;4.67;;
16242;SDS011;11719;51.052;6.982;2023-05-14T08:54:28;5.53;;;3.80;;
16242;SDS011;11719;51.052;6.982;2023-05-14T08:56:56;6.07;;;4.53;;
16242;SDS011;11719;51.052;6.982;2023-05-14T08:59:23;5.50;;;4.40;;
16242;SDS011;11719;51.052;6.982;2023-05-14T09:01:50;5.43;;;3.70;;
16242;SDS011;11719;51.052;6.982;2023-05-14T09:04:22;5.53;;;3.67;;
16242;SDS011;11719;51.052;6.982;2023-05-14T09:06:52;4.63;;;3.60;;
16242;SDS011;11719;51.052;6.982;2023-05-14T09:09:19;5.40;;;3.73;;
16242;SDS011;11719;51.052;6.982;2023-05-14T09:11:47;5.77;;;3.80;;
16242;SDS011;11719;51.052;6.982;2023-05-14T09:14:15;5.73;;;4.50;;
16242;SDS011;11719;51.052;6.982;2023-05-14T09:16:42;3.00;;;2.70;;
16242;SDS011;11719;51.052;6.982;2023-05-14T09:19:11;7.43;;;3.63;;
16242;SDS011;11719;51.052;6.982;2023-05-14T09:21:37;5.10;;;3.20;;
16242;SDS011;11719;51.052;6.982;2023-05-14T09:24:04;5.17;;;3.90;;
16242;SDS011;11719;51.052;6.982;2023-05-14T09:26:31;6.57;;;4.40;;
16242;SDS011;11719;51.052;6.982;2023-05-14T09:28:59;6.40;;;4.33;;
16242;SDS011;11719;51.052;6.982;2023-05-14T09:31:26;5.53;;;4.00;;
16242;SDS011;11719;51.052;6.982;2023-05-14T09:33:56;4.73;;;3.60;;
16242;SDS011;11719;51.052;6.982;2023-05-14T09:36:23;4.13;;;3.60;;
16242;SDS011;11719;51.052;6.982;2023-05-14T09:38:51;5.10;;;3.97;;
16242;SDS011;11719;51.052;6.982;2023-05-14T09:41:24;5.07;;;3.70;;
16242;SDS011;11719;51.052;6.982;2023-05-14T09:43:50;5.00;;;3.83;;
16242;SDS011;11719;51.052;6.982;2023-05-14T09:46:16;5.00;;;3.30;;
16242;SDS011;11719;51.052;6.982;2023-05-14T09:48:42;5.10;;;3.70;;
16242;SDS011;11719;51.052;6.982;2023-05-14T09:51:09;5.27;;;3.43;;
16242;SDS011;11719;51.052;6.982;2023-05-14T09:53:35;4.13;;;3.33;;
16242;SDS011;11719;51.052;6.982;2023-05-14T09:56:01;4.00;;;3.00;;
16242;SDS011;11719;51.052;6.982;2023-05-14T09:58:27;4.53;;;3.03;;
16242;SDS011;11719;51.052;6.982;2023-05-14T10:00:53;7.97;;;3.77;;
16242;SDS011;11719;51.052;6.982;2023-05-14T10:03:23;4.07;;;3.33;;
16242;SDS011;11719;51.052;6.982;2023-05-14T10:05:53;5.37;;;3.40;;
16242;SDS011;11719;51.052;6.982;2023-05-14T10:08:34;4.57;;;3.40;;
16242;SDS011;11719;51.052;6.982;2023-05-14T10:11:07;5.80;;;4.27;;
16242;SDS011;11719;51.052;6.982;2023-05-14T10:13:40;7.17;;;4.40;;
16242;SDS011;11719;51.052;6.982;2023-05-14T10:16:14;4.57;;;3.67;;
16242;SDS011;11719;51.052;6.982;2023-05-14T10:18:45;6.23;;;4.73;;
16242;SDS011;11719;51.052;6.982;2023-05-14T10:21:16;4.00;;;2.80;;
16242;SDS011;11719;51.052;6.982;2023-05-14T10:23:45;3.90;;;3.00;;
16242;SDS011;11719;51.052;6.982;2023-05-14T10:26:13;5.27;;;3.77;;
16242;SDS011;11719;51.052;6.982;2023-05-14T10:28:39;5.50;;;3.87;;
16242;SDS011;11719;51.052;6.982;2023-05-14T10:31:08;8.80;;;4.70;;
16242;SDS011;11719;51.052;6.982;2023-05-14T10:33:55;4.77;;;3.63;;
16242;SDS011;11719;51.052;6.982;2023-05-14T10:36:20;5.63;;;4.23;;
16242;SDS011;11719;51.052;6.982;2023-05-14T10:38:46;5.03;;;3.73;;
16242;SDS011;11719;51.052;6.982;2023-05-14T10:41:21;5.27;;;4.30;;
16242;SDS011;11719;51.052;6.982;2023-05-14T10:43:46;6.70;;;4.13;;
16242;SDS011;11719;51.052;6.982;2023-05-14T10:46:13;5.83;;;4.13;;
16242;SDS011;11719;51.052;6.982;2023-05-14T10:48:40;7.13;;;4.30;;
16242;SDS011;11719;51.052;6.982;2023-05-14T10:51:07;7.00;;;3.50;;
16242;SDS011;11719;51.052;6.982;2023-05-14T10:53:35;5.23;;;3.63;;
16242;SDS011;11719;51.052;6.982;2023-05-14T10:56:07;5.60;;;3.20;;
16242;SDS011;11719;51.052;6.982;2023-05-14T10:58:42;5.50;;;3.10;;
16242;SDS011;11719;51.052;6.982;2023-05-14T11:01:09;4.07;;;3.30;;
16242;SDS011;11719;51.052;6.982;2023-05-14T11:03:38;5.17;;;3.40;;
16242;SDS011;11719;51.052;6.982;2023-05-14T11:06:06;5.13;;;3.13;;
16242;SDS011;11719;51.052;6.982;2023-05-14T11:08:33;4.13;;;3.63;;
16242;SDS011;11719;51.052;6.982;2023-05-14T11:11:00;3.60;;;2.87;;
16242;SDS011;11719;51.052;6.982;2023-05-14T11:13:27;6.33;;;3.60;;
16242;SDS011;11719;51.052;6.982;2023-05-14T11:15:53;4.17;;;3.43;;
16242;SDS011;11719;51.052;6.982;2023-05-14T11:18:27;3.77;;;2.97;;
16242;SDS011;11719;51.052;6.982;2023-05-14T11:20:58;4.93;;;3.27;;
16242;SDS011;11719;51.052;6.982;2023-05-14T11:23:25;4.17;;;3.40;;
16242;SDS011;11719;51.052;6.982;2023-05-14T11:25:52;4.27;;;3.73;;
16242;SDS011;11719;51.052;6.982;2023-05-14T11:28:21;4.70;;;3.77;;
16242;SDS011;11719;51.052;6.982;2023-05-14T11:30:49;8.80;;;4.33;;
16242;SDS011;11719;51.052;6.982;2023-05-14T11:33:16;4.20;;;3.43;;
16242;SDS011;11719;51.052;6.982;2023-05-14T11:35:42;6.20;;;4.20;;
16242;SDS011;11719;51.052;6.982;2023-05-14T11:38:16;4.53;;;3.07;;
16242;SDS011;11719;51.052;6.982;2023-05-14T11:40:54;4.67;;;3.50;;
16242;SDS011;11719;51.052;6.982;2023-05-14T11:43:21;4.07;;;3.10;;
16242;SDS011;11719;51.052;6.982;2023-05-14T11:45:48;4.60;;;3.37;;
16242;SDS011;11719;51.052;6.982;2023-05-14T11:48:16;4.57;;;3.43;;
16242;SDS011;11719;51.052;6.982;2023-05-14T11:50:46;4.87;;;2.80;;
16242;SDS011;11719;51.052;6.982;2023-05-14T11:55:53;4.27;;;3.47;;
16242;SDS011;11719;51.052;6.982;2023-05-14T11:58:21;8.23;;;3.70;;
16242;SDS011;11719;51.052;6.982;2023-05-14T12:00:48;4.73;;;3.53;;
16242;SDS011;11719;51.052;6.982;2023-05-14T12:03:17;2.87;;;2.40;;
16242;SDS011;11719;51.052;6.982;2023-05-14T12:08:26;2.17;;;1.90;;
16242;SDS011;11719;51.052;6.982;2023-05-14T12:10:54;2.43;;;1.67;;
16242;SDS011;11719;51.052;6.982;2023-05-14T12:13:26;5.90;;;2.43;;
16242;SDS011;11719;51.052;6.982;2023-05-14T12:15:56;2.97;;;2.00;;
16242;SDS011;11719;51.052;6.982;2023-05-14T12:18:24;1.70;;;1.20;;
16242;SDS011;11719;51.052;6.982;2023-05-14T12:20:52;2.03;;;1.70;;
16242;SDS011;11719;51.052;6.982;2023-05-14T12:23:25;3.80;;;1.43;;
16242;SDS011;11719;51.052;6.982;2023-05-14T12:25:52;1.70;;;1.40;;
16242;SDS011;11719;51.052;6.982;2023-05-14T12:28:18;1.43;;;1.20;;
16242;SDS011;11719;51.052;6.982;2023-05-14T12:30:45;1.37;;;1.27;;
16242;SDS011;11719;51.052;6.982;2023-05-14T12:33:11;1.70;;;1.60;;
16242;SDS011;11719;51.052;6.982;2023-05-14T12:35:42;2.10;;;1.80;;
16242;SDS011;11719;51.052;6.982;2023-05-14T12:38:07;2.17;;;1.60;;
16242;SDS011;11719;51.052;6.982;2023-05-14T12:40:33;2.30;;;1.63;;
16242;SDS011;11719;51.052;6.982;2023-05-14T12:42:59;1.80;;;1.67;;
16242;SDS011;11719;51.052;6.982;2023-05-14T12:45:25;2.53;;;1.50;;
16242;SDS011;11719;51.052;6.982;2023-05-14T12:47:50;3.13;;;1.50;;
16242;SDS011;11719;51.052;6.982;2023-05-14T12:50:16;2.30;;;2.10;;
16242;SDS011;11719;51.052;6.982;2023-05-14T12:52:42;2.10;;;1.40;;
16242;SDS011;11719;51.052;6.982;2023-05-14T12:55:08;2.03;;;1.73;;
16242;SDS011;11719;51.052;6.982;2023-05-14T12:57:34;2.10;;;1.80;;
16242;SDS011;11719;51.052;6.982;2023-05-14T13:00:01;1.70;;;1.60;;
16242;SDS011;11719;51.052;6.982;2023-05-14T13:02:30;3.50;;;1.90;;
16242;SDS011;11719;51.052;6.982;2023-05-14T13:04:56;2.23;;;1.90;;
16242;SDS011;11719;51.052;6.982;2023-05-14T13:07:22;1.80;;;1.70;;
16242;SDS011;11719;51.052;6.982;2023-05-14T13:09:48;1.57;;;1.43;;
16242;SDS011;11719;51.052;6.982;2023-05-14T13:12:14;4.07;;;2.13;;
16242;SDS011;11719;51.052;6.982;2023-05-14T13:14:39;5.60;;;2.07;;
16242;SDS011;11719;51.052;6.982;2023-05-14T13:17:05;1.50;;;1.37;;
16242;SDS011;11719;51.052;6.982;2023-05-14T13:19:32;1.73;;;1.57;;
16242;SDS011;11719;51.052;6.982;2023-05-14T13:21:57;2.87;;;1.87;;
16242;SDS011;11719;51.052;6.982;2023-05-14T13:24:23;2.47;;;1.43;;
16242;SDS011;11719;51.052;6.982;2023-05-14T13:26:49;1.67;;;1.50;;
16242;SDS011;11719;51.052;6.982;2023-05-14T13:29:15;1.90;;;1.50;;
16242;SDS011;11719;51.052;6.982;2023-05-14T13:31:41;1.47;;;1.20;;
16242;SDS011;11719;51.052;6.982;2023-05-14T13:34:07;1.70;;;1.60;;
16242;SDS011;11719;51.052;6.982;2023-05-14T13:36:34;2.13;;;1.60;;
16242;SDS011;11719;51.052;6.982;2023-05-14T13:39:03;1.23;;;1.17;;
16242;SDS011;11719;51.052;6.982;2023-05-14T13:41:30;2.03;;;1.83;;
16242;SDS011;11719;51.052;6.982;2023-05-14T13:43:59;3.27;;;1.50;;
16242;SDS011;11719;51.052;6.982;2023-05-14T13:46:25;2.00;;;1.80;;
16242;SDS011;11719;51.052;6.982;2023-05-14T13:48:51;1.10;;;1.00;;
16242;SDS011;11719;51.052;6.982;2023-05-14T13:51:16;3.77;;;1.70;;
16242;SDS011;11719;51.052;6.982;2023-05-14T13:53:42;2.47;;;1.70;;
16242;SDS011;11719;51.052;6.982;2023-05-14T13:56:08;1.50;;;1.40;;
16242;SDS011;11719;51.052;6.982;2023-05-14T13:58:35;1.33;;;1.17;;
16242;SDS011;11719;51.052;6.982;2023-05-14T14:01:01;1.43;;;1.33;;
16242;SDS011;11719;51.052;6.982;2023-05-14T14:03:27;2.57;;;1.53;;
16242;SDS011;11719;51.052;6.982;2023-05-14T14:05:53;2.00;;;1.53;;
16242;SDS011;11719;51.052;6.982;2023-05-14T14:08:19;1.50;;;1.40;;
16242;SDS011;11719;51.052;6.982;2023-05-14T14:10:45;1.83;;;1.60;;
16242;SDS011;11719;51.052;6.982;2023-05-14T14:13:12;1.63;;;1.53;;
16242;SDS011;11719;51.052;6.982;2023-05-14T14:15:38;1.53;;;1.30;;
16242;SDS011;11719;51.052;6.982;2023-05-14T14:18:03;3.00;;;1.57;;
16242;SDS011;11719;51.052;6.982;2023-05-14T14:20:30;1.30;;;1.20;;
16242;SDS011;11719;51.052;6.982;2023-05-14T14:22:56;1.90;;;1.37;;
16242;SDS011;11719;51.052;6.982;2023-05-14T14:25:22;1.53;;;1.40;;
16242;SDS011;11719;51.052;6.982;2023-05-14T14:27:48;1.90;;;1.60;;
16242;SDS011;11719;51.052;6.982;2023-05-14T14:30:14;1.33;;;1.23;;
16242;SDS011;11719;51.052;6.982;2023-05-14T14:32:44;2.63;;;1.30;;
16242;SDS011;11719;51.052;6.982;2023-05-14T14:35:12;1.73;;;1.27;;
16242;SDS011;11719;51.052;6.982;2023-05-14T14:37:41;1.70;;;1.43;;
16242;SDS011;11719;51.052;6.982;2023-05-14T14:40:09;1.77;;;1.50;;
16242;SDS011;11719;51.052;6.982;2023-05-14T14:42:36;2.43;;;1.40;;
16242;SDS011;11719;51.052;6.982;2023-05-14T14:45:05;2.27;;;1.50;;
16242;SDS011;11719;51.052;6.982;2023-05-14T14:47:32;1.83;;;1.57;;
16242;SDS011;11719;51.052;6.982;2023-05-14T14:49:58;1.80;;;1.47;;
16242;SDS011;11719;51.052;6.982;2023-05-14T14:52:25;1.37;;;1.10;;
16242;SDS011;11719;51.052;6.982;2023-05-14T14:54:52;1.40;;;1.30;;
16242;SDS011;11719;51.052;6.982;2023-05-14T14:57:19;1.60;;;1.40;;
16242;SDS011;11719;51.052;6.982;2023-05-14T14:59:45;2.10;;;1.47;;
16242;SDS011;11719;51.052;6.982;2023-05-14T15:02:12;2.23;;;1.73;;